Time;durP1;ratioP1;P1;durP2;ratioP2;P2;SDS_P1;SDS_P2;PMS_P1;PMS_P2;Temp;Humidity;BMP_temperature;BMP_pressure;BME280_temperature;BME280_humidity;BME280_pressure;Samples;Min_cycle;Max_cycle;Signal;HPM_P1;HPM_P2
2024/04/14 00:01:53;;;;;;;5.05;2.17;;;23.30;81.90;;;;;;5512839;26;20043;-61
2024/04/14 00:04:18;;;;;;;5.75;2.22;;;23.30;81.90;;;;;;5507902;26;20030;-61
2024/04/14 00:06:44;;;;;;;6.15;2.08;;;23.30;81.80;;;;;;5511139;26;20041;-62
2024/04/14 00:09:10;;;;;;;5.82;2.00;;;23.30;81.60;;;;;;5507891;26;20031;-62
2024/04/14 00:11:36;;;;;;;6.07;2.05;;;23.30;81.50;;;;;;5495939;26;20019;-61
2024/04/14 00:14:02;;;;;;;6.22;1.98;;;23.20;81.30;;;;;;5504905;26;19994;-61
2024/04/14 00:16:27;;;;;;;5.68;2.00;;;23.30;81.20;;;;;;5511539;26;19993;-61
2024/04/14 00:18:53;;;;;;;5.57;2.20;;;23.20;81.00;;;;;;5504465;26;20009;-61
2024/04/14 00:21:21;;;;;;;6.35;2.17;;;23.20;80.90;;;;;;5496586;26;20001;-61
2024/04/14 00:23:47;;;;;;;6.72;2.30;;;23.20;80.90;;;;;;5492727;25;19998;-61
2024/04/14 00:26:13;;;;;;;5.80;2.28;;;23.20;80.80;;;;;;5514885;25;20009;-61
2024/04/14 00:28:39;;;;;;;5.30;2.05;;;23.20;80.60;;;;;;5501219;26;20433;-61
2024/04/14 00:31:05;;;;;;;5.20;1.98;;;23.20;80.60;;;;;;5498125;25;19993;-61
2024/04/14 00:33:31;;;;;;;5.25;2.08;;;23.20;80.50;;;;;;5497463;26;20016;-62
2024/04/14 00:35:56;;;;;;;5.40;2.10;;;23.20;80.40;;;;;;5506611;26;20001;-61
2024/04/14 00:38:22;;;;;;;5.10;1.90;;;23.20;80.50;;;;;;5513163;25;20442;-61
2024/04/14 00:40:48;;;;;;;5.55;2.28;;;23.20;80.50;;;;;;5527289;25;20000;-61
2024/04/14 00:43:14;;;;;;;6.25;2.20;;;23.10;80.30;;;;;;5536992;25;20015;-61
2024/04/14 00:45:40;;;;;;;5.30;2.10;;;23.20;80.20;;;;;;5521334;25;20075;-61
2024/04/14 00:48:09;;;;;;;5.40;2.10;;;23.10;80.00;;;;;;5506117;26;21717;-61
2024/04/14 00:50:35;;;;;;;5.87;2.20;;;23.10;79.90;;;;;;5500479;26;20016;-61
2024/04/14 00:53:01;;;;;;;5.55;2.10;;;23.20;80.00;;;;;;5495139;26;20228;-62
2024/04/14 00:55:28;;;;;;;5.68;2.00;;;23.10;79.90;;;;;;5508530;26;20057;-61
2024/04/14 00:57:54;;;;;;;4.78;2.03;;;23.10;79.70;;;;;;5503111;26;20016;-60
2024/04/14 01:00:22;;;;;;;6.57;2.10;;;23.10;79.50;;;;;;5495567;26;19998;-61
2024/04/14 01:02:50;;;;;;;5.13;1.90;;;23.10;79.50;;;;;;5499584;26;20041;-60
2024/04/14 01:05:17;;;;;;;6.80;2.22;;;23.10;79.30;;;;;;5502122;26;20081;-61
2024/04/14 01:07:42;;;;;;;4.75;1.90;;;23.10;79.10;;;;;;5514695;25;20476;-61
2024/04/14 01:10:08;;;;;;;5.30;1.90;;;23.10;78.90;;;;;;5498824;26;20008;-61
2024/04/14 01:12:34;;;;;;;7.38;2.00;;;23.10;78.60;;;;;;5503629;25;20064;-60
2024/04/14 01:15:02;;;;;;;6.35;2.00;;;23.00;78.50;;;;;;5506456;25;19994;-60
2024/04/14 01:17:28;;;;;;;5.65;2.03;;;23.00;78.30;;;;;;5505454;26;20432;-61
2024/04/14 01:19:53;;;;;;;6.18;2.10;;;23.00;78.40;;;;;;5502581;26;20011;-60
2024/04/14 01:22:19;;;;;;;4.93;1.85;;;23.00;78.40;;;;;;5496868;26;20028;-60
2024/04/14 01:24:44;;;;;;;5.68;1.90;;;22.90;78.40;;;;;;5501093;26;20010;-60
2024/04/14 01:27:10;;;;;;;5.15;1.90;;;22.90;78.50;;;;;;5501800;26;20013;-60
2024/04/14 01:29:35;;;;;;;5.20;1.85;;;22.90;78.40;;;;;;5499006;25;20002;-60
2024/04/14 01:32:03;;;;;;;4.95;2.00;;;22.90;78.30;;;;;;5504037;26;20001;-61
2024/04/14 01:34:32;;;;;;;4.78;1.73;;;22.90;78.20;;;;;;5517446;25;19995;-60
2024/04/14 01:36:57;;;;;;;4.13;1.67;;;22.80;78.00;;;;;;5513898;25;20012;-60
2024/04/14 01:39:23;;;;;;;5.75;1.88;;;22.80;78.20;;;;;;5498334;26;20013;-61
2024/04/14 01:41:50;;;;;;;5.78;1.85;;;22.80;78.00;;;;;;5512238;25;20002;-60
2024/04/14 01:44:18;;;;;;;5.30;1.67;;;22.80;78.00;;;;;;5503403;25;20422;-60
2024/04/14 01:46:44;;;;;;;5.65;1.90;;;22.80;78.10;;;;;;5500828;26;20378;-60
2024/04/14 01:49:13;;;;;;;5.43;1.70;;;22.80;77.90;;;;;;5502242;26;20008;-60
2024/04/14 01:51:38;;;;;;;4.90;1.60;;;22.80;77.80;;;;;;5497169;26;20006;-60
2024/04/14 01:54:04;;;;;;;5.82;1.80;;;22.70;77.70;;;;;;5502612;26;20034;-60
2024/04/14 01:56:29;;;;;;;4.82;1.80;;;22.70;77.50;;;;;;5513415;25;19998;-59
2024/04/14 01:58:55;;;;;;;5.60;1.80;;;22.70;77.40;;;;;;5504329;26;20489;-60
2024/04/14 02:01:21;;;;;;;3.72;1.50;;;22.70;77.40;;;;;;5498906;26;20078;-60
2024/04/14 02:03:46;;;;;;;5.53;1.65;;;22.70;77.20;;;;;;5498999;26;20218;-61
2024/04/14 02:06:12;;;;;;;4.80;1.85;;;22.70;77.10;;;;;;5519614;25;20006;-61
2024/04/14 02:08:37;;;;;;;5.13;1.60;;;22.70;77.20;;;;;;5519115;25;19997;-61
2024/04/14 02:11:03;;;;;;;5.38;1.85;;;22.60;77.10;;;;;;5524781;25;20331;-61
2024/04/14 02:13:29;;;;;;;4.93;1.73;;;22.60;77.10;;;;;;5512777;26;20074;-61
2024/04/14 02:15:54;;;;;;;5.25;1.70;;;22.60;76.80;;;;;;5508219;26;20010;-61
2024/04/14 02:18:20;;;;;;;6.00;1.73;;;22.60;76.80;;;;;;5514749;26;20017;-61
2024/04/14 02:20:46;;;;;;;4.05;1.60;;;22.50;76.80;;;;;;5519904;26;20514;-61
2024/04/14 02:23:11;;;;;;;5.43;1.63;;;22.60;76.80;;;;;;5508199;26;20008;-61
2024/04/14 02:25:37;;;;;;;5.18;1.73;;;22.60;76.80;;;;;;5534102;25;20000;-61
2024/04/14 02:28:03;;;;;;;4.75;1.58;;;22.50;76.90;;;;;;5535810;25;20002;-61
2024/04/14 02:30:29;;;;;;;6.47;2.00;;;22.50;76.90;;;;;;5533585;25;19998;-61
2024/04/14 02:32:55;;;;;;;4.55;1.60;;;22.50;77.00;;;;;;5552141;25;20021;-61
2024/04/14 02:35:20;;;;;;;5.45;1.60;;;22.50;77.10;;;;;;5508304;26;20006;-61
2024/04/14 02:37:46;;;;;;;4.07;1.50;;;22.50;76.90;;;;;;5507835;26;20012;-61
2024/04/14 02:40:12;;;;;;;5.18;1.67;;;22.50;77.00;;;;;;5512704;26;20006;-61
2024/04/14 02:42:37;;;;;;;4.70;1.50;;;22.50;77.00;;;;;;5531807;25;20001;-61
2024/04/14 02:45:03;;;;;;;4.38;1.58;;;22.50;77.10;;;;;;5498745;26;20348;-61
2024/04/14 02:47:29;;;;;;;5.30;1.70;;;22.40;76.90;;;;;;5507471;26;20010;-61
2024/04/14 02:49:55;;;;;;;4.45;1.70;;;22.40;76.80;;;;;;5535120;25;20001;-61
2024/04/14 02:52:20;;;;;;;4.00;1.42;;;22.40;76.90;;;;;;5517057;25;20547;-61
2024/04/14 02:54:46;;;;;;;5.53;1.70;;;22.40;76.90;;;;;;5512403;26;20360;-61
2024/04/14 02:57:12;;;;;;;4.75;1.50;;;22.40;76.90;;;;;;5516199;26;20001;-61
2024/04/14 02:59:38;;;;;;;5.60;1.60;;;22.40;76.90;;;;;;5517939;25;20005;-62
2024/04/14 03:02:05;;;;;;;4.22;1.58;;;22.40;77.30;;;;;;5514319;26;20010;-61
2024/04/14 03:04:33;;;;;;;5.15;1.60;;;22.40;76.90;;;;;;5509530;26;19994;-61
2024/04/14 03:06:58;;;;;;;4.03;1.33;;;22.40;76.80;;;;;;5526866;25;19997;-61
2024/04/14 03:09:24;;;;;;;4.60;1.60;;;22.40;76.80;;;;;;5536529;25;20352;-61
2024/04/14 03:11:49;;;;;;;3.78;1.50;;;22.30;76.70;;;;;;5543128;25;20001;-61
2024/04/14 03:14:15;;;;;;;4.25;1.40;;;22.30;76.70;;;;;;5508620;25;20038;-60
2024/04/14 03:16:41;;;;;;;4.63;1.33;;;22.30;76.60;;;;;;5519368;25;20051;-60
2024/04/14 03:19:07;;;;;;;4.88;1.70;;;22.30;76.50;;;;;;5520879;25;20001;-60
2024/04/14 03:21:32;;;;;;;4.75;1.48;;;22.30;76.60;;;;;;5496944;25;20075;-60
2024/04/14 03:23:58;;;;;;;5.57;1.70;;;22.30;76.50;;;;;;5500592;26;19998;-60
2024/04/14 03:26:23;;;;;;;4.47;1.52;;;22.30;76.60;;;;;;5497975;26;20042;-60
2024/04/14 03:28:49;;;;;;;6.03;1.52;;;22.30;76.50;;;;;;5506732;26;19997;-60
2024/04/14 03:31:14;;;;;;;5.57;1.50;;;22.30;76.60;;;;;;5498837;26;20073;-60
2024/04/14 03:33:40;;;;;;;4.32;1.40;;;22.20;76.50;;;;;;5501182;26;20356;-60
2024/04/14 03:36:07;;;;;;;5.32;1.70;;;22.20;76.50;;;;;;5509526;26;20001;-60
2024/04/14 03:38:33;;;;;;;3.58;1.40;;;22.20;76.60;;;;;;5508281;25;20009;-60
2024/04/14 03:40:59;;;;;;;4.20;1.40;;;22.20;76.60;;;;;;5498131;26;20485;-59
2024/04/14 03:43:24;;;;;;;4.60;1.63;;;22.20;76.60;;;;;;5505265;26;19998;-60
2024/04/14 03:45:50;;;;;;;4.47;1.40;;;22.20;76.60;;;;;;5500395;26;19993;-60
2024/04/14 03:48:16;;;;;;;5.40;1.65;;;22.20;76.60;;;;;;5510863;25;20004;-60
2024/04/14 03:50:42;;;;;;;4.47;1.50;;;22.20;76.60;;;;;;5505094;26;19997;-59
2024/04/14 03:53:09;;;;;;;5.60;1.60;;;22.10;76.40;;;;;;5498222;26;20695;-60
2024/04/14 03:55:35;;;;;;;5.50;1.60;;;22.10;76.30;;;;;;5500074;26;19998;-59
2024/04/14 03:58:00;;;;;;;5.32;1.65;;;22.10;76.30;;;;;;5496759;26;20345;-60
2024/04/14 04:00:26;;;;;;;5.90;1.60;;;22.10;76.40;;;;;;5514435;25;20061;-60
2024/04/14 04:02:52;;;;;;;6.90;1.83;;;22.10;76.30;;;;;;5522052;25;19997;-60
2024/04/14 04:05:17;;;;;;;3.50;1.30;;;22.10;76.40;;;;;;5504657;25;20797;-60
2024/04/14 04:07:51;;;;;;;5.45;1.60;;;22.00;76.30;;;;;;5515064;25;19999;-60
2024/04/14 04:10:17;;;;;;;5.32;1.60;;;22.00;76.20;;;;;;5506141;26;20033;-60
2024/04/14 04:12:42;;;;;;;6.07;1.65;;;22.10;76.30;;;;;;5505550;26;19998;-60
2024/04/14 04:15:08;;;;;;;5.45;1.40;;;22.00;76.30;;;;;;5506621;25;20336;-60
2024/04/14 04:17:33;;;;;;;4.50;1.50;;;22.00;76.40;;;;;;5523988;25;20135;-60
2024/04/14 04:19:59;;;;;;;5.25;1.60;;;22.00;76.40;;;;;;5525779;25;20009;-60
2024/04/14 04:22:24;;;;;;;5.30;1.30;;;22.00;76.30;;;;;;5526631;25;20015;-60
2024/04/14 04:24:50;;;;;;;5.97;1.63;;;22.00;76.20;;;;;;5526562;25;20033;-60
2024/04/14 04:27:17;;;;;;;4.03;1.50;;;22.00;76.20;;;;;;5496421;26;20391;-60
2024/04/14 04:29:42;;;;;;;4.80;1.50;;;22.00;76.20;;;;;;5506510;26;19995;-60
2024/04/14 04:32:08;;;;;;;4.75;1.58;;;22.00;76.30;;;;;;5503238;26;20042;-59
2024/04/14 04:34:33;;;;;;;4.72;1.35;;;22.00;76.40;;;;;;5505878;25;19993;-60
2024/04/14 04:36:59;;;;;;;5.18;1.30;;;22.00;76.30;;;;;;5509309;26;20005;-60
2024/04/14 04:39:24;;;;;;;4.28;1.45;;;21.90;76.30;;;;;;5505285;25;20074;-60
2024/04/14 04:41:50;;;;;;;5.78;1.80;;;22.00;76.40;;;;;;5494084;26;19998;-60
2024/04/14 04:44:16;;;;;;;5.05;1.52;;;21.90;76.30;;;;;;5499634;26;20471;-60
2024/04/14 04:46:41;;;;;;;4.40;1.52;;;21.90;76.20;;;;;;5505513;26;19993;-60
2024/04/14 04:49:09;;;;;;;4.50;1.50;;;21.90;76.10;;;;;;5498861;26;20006;-60
2024/04/14 04:51:35;;;;;;;5.72;1.60;;;21.90;76.20;;;;;;5500906;26;20013;-60
2024/04/14 04:54:00;;;;;;;5.47;1.63;;;21.90;76.10;;;;;;5507567;25;20068;-60
2024/04/14 04:56:28;;;;;;;5.60;1.75;;;21.90;76.10;;;;;;5503768;26;20001;-60
2024/04/14 04:58:54;;;;;;;4.28;1.40;;;21.90;76.10;;;;;;5503961;26;20410;-60
2024/04/14 05:01:19;;;;;;;3.80;1.40;;;21.90;76.00;;;;;;5509410;25;20004;-60
2024/04/14 05:03:45;;;;;;;4.85;1.50;;;21.90;76.20;;;;;;5522319;25;19994;-60
2024/04/14 05:06:11;;;;;;;5.10;1.52;;;21.90;76.20;;;;;;5504546;26;20532;-60
2024/04/14 05:08:36;;;;;;;5.13;1.48;;;21.80;76.20;;;;;;5499038;26;20047;-61
2024/04/14 05:11:02;;;;;;;5.15;1.60;;;21.80;76.20;;;;;;5510684;25;20012;-60
2024/04/14 05:13:28;;;;;;;4.00;1.30;;;21.80;76.20;;;;;;5505076;26;20054;-60
2024/04/14 05:15:54;;;;;;;4.93;1.63;;;21.80;76.20;;;;;;5501707;26;20393;-60
2024/04/14 05:18:20;;;;;;;5.88;1.73;;;21.80;76.20;;;;;;5514625;25;19996;-60
2024/04/14 05:20:46;;;;;;;6.22;1.67;;;21.80;76.20;;;;;;5516911;25;19997;-60
2024/04/14 05:23:11;;;;;;;4.85;1.58;;;21.80;76.20;;;;;;5512958;25;20082;-60
2024/04/14 05:25:40;;;;;;;4.82;1.70;;;21.80;76.10;;;;;;5499027;26;20009;-60
2024/04/14 05:28:06;;;;;;;5.43;1.63;;;21.80;76.10;;;;;;5503881;26;20025;-60
2024/04/14 05:30:31;;;;;;;4.38;1.40;;;21.80;76.20;;;;;;5532270;25;20015;-60
2024/04/14 05:32:59;;;;;;;6.88;1.77;;;21.80;76.20;;;;;;5531162;25;20011;-60
2024/04/14 05:35:27;;;;;;;4.53;1.50;;;21.70;76.00;;;;;;5508699;25;20452;-60
2024/04/14 05:37:53;;;;;;;5.45;1.50;;;21.70;76.10;;;;;;5503998;26;19994;-60
2024/04/14 05:40:18;;;;;;;6.90;2.00;;;21.70;76.10;;;;;;5518244;25;20004;-60
2024/04/14 05:42:44;;;;;;;4.97;1.40;;;21.70;76.10;;;;;;5513510;25;20051;-60
2024/04/14 05:45:10;;;;;;;6.72;1.63;;;21.70;76.10;;;;;;5519379;25;19994;-60
2024/04/14 05:47:36;;;;;;;4.93;1.50;;;21.70;76.10;;;;;;5530077;25;20008;-60
2024/04/14 05:50:02;;;;;;;4.78;1.42;;;21.70;76.10;;;;;;5513056;25;20030;-60
2024/04/14 05:52:27;;;;;;;4.43;1.60;;;21.70;76.10;;;;;;5528456;25;20004;-60
2024/04/14 05:54:53;;;;;;;8.05;1.55;;;21.70;76.10;;;;;;5518240;25;20459;-59
2024/04/14 05:57:18;;;;;;;9.40;1.70;;;21.70;76.40;;;;;;5508729;25;20005;-60
2024/04/14 05:59:45;;;;;;;6.85;2.22;;;21.70;76.90;;;;;;5499968;25;19998;-60
2024/04/14 06:02:11;;;;;;;7.82;2.75;;;21.70;77.80;;;;;;5511288;25;20005;-59
2024/04/14 06:04:36;;;;;;;6.00;2.00;;;21.70;78.10;;;;;;5525178;25;20304;-60
2024/04/14 06:07:02;;;;;;;6.50;2.05;;;21.70;78.00;;;;;;5522680;25;20009;-60
2024/04/14 06:09:28;;;;;;;6.20;1.77;;;21.70;78.10;;;;;;5526717;25;20006;-60
2024/04/14 06:11:54;;;;;;;7.85;1.80;;;21.70;78.30;;;;;;5514969;25;20032;-59
2024/04/14 06:14:22;;;;;;;9.60;2.10;;;21.70;78.90;;;;;;5519581;25;20009;-60
2024/04/14 06:16:47;;;;;;;7.60;1.98;;;21.80;79.30;;;;;;5520642;25;20399;-60
2024/04/14 06:19:13;;;;;;;5.32;1.60;;;21.70;80.40;;;;;;5518699;25;20090;-60
2024/04/14 06:21:38;;;;;;;7.00;1.95;;;21.70;80.70;;;;;;5518062;25;20070;-60
2024/04/14 06:24:05;;;;;;;7.60;1.67;;;21.70;80.60;;;;;;5530626;25;20065;-60
2024/04/14 06:26:31;;;;;;;4.97;1.60;;;21.70;80.40;;;;;;5522390;25;20553;-60
2024/04/14 06:28:59;;;;;;;5.40;1.42;;;21.70;80.00;;;;;;5538389;25;19997;-60
2024/04/14 06:31:24;;;;;;;5.65;1.50;;;21.70;79.70;;;;;;5517234;25;20535;-60
2024/04/14 06:33:50;;;;;;;4.22;1.55;;;21.70;79.50;;;;;;5523377;25;20008;-59
2024/04/14 06:36:16;;;;;;;5.45;1.48;;;21.70;79.20;;;;;;5520508;25;20016;-60
2024/04/14 06:38:44;;;;;;;4.22;1.52;;;21.70;79.10;;;;;;5525988;25;20001;-60
2024/04/14 06:41:10;;;;;;;4.78;1.42;;;21.70;79.00;;;;;;5513787;25;20016;-60
2024/04/14 06:43:36;;;;;;;4.78;1.40;;;21.70;78.90;;;;;;5525053;25;20006;-61
2024/04/14 06:46:02;;;;;;;4.65;1.60;;;21.60;78.70;;;;;;5542000;25;20033;-61
2024/04/14 06:48:27;;;;;;;7.25;1.60;;;21.70;78.70;;;;;;5540189;25;20042;-60
2024/04/14 06:50:53;;;;;;;4.90;1.55;;;21.70;78.70;;;;;;5523788;25;20587;-61
2024/04/14 06:53:22;;;;;;;5.55;1.30;;;21.70;79.10;;;;;;5528002;25;19997;-61
2024/04/14 06:55:50;;;;;;;5.13;1.43;;;21.70;79.10;;;;;;5515062;25;19993;-61
2024/04/14 06:58:16;;;;;;;6.90;1.75;;;21.70;79.00;;;;;;5525622;25;20006;-61
2024/04/14 07:00:41;;;;;;;4.97;1.42;;;21.70;78.90;;;;;;5534840;25;20012;-61
2024/04/14 07:03:08;;;;;;;6.00;1.60;;;21.70;78.80;;;;;;5546810;25;20572;-61
2024/04/14 07:05:34;;;;;;;4.10;1.20;;;21.70;78.80;;;;;;5540798;25;20437;-61
2024/04/14 07:07:59;;;;;;;5.00;1.40;;;21.70;78.60;;;;;;5529620;25;19994;-61
2024/04/14 07:10:25;;;;;;;5.43;1.40;;;21.70;78.50;;;;;;5533231;25;20001;-61
2024/04/14 07:12:53;;;;;;;6.22;1.65;;;21.70;78.60;;;;;;5502561;26;20009;-61
2024/04/14 07:15:18;;;;;;;4.85;1.30;;;21.70;78.90;;;;;;5498213;26;20006;-61
2024/04/14 07:17:44;;;;;;;5.63;1.48;;;21.70;78.50;;;;;;5500256;26;20092;-61
2024/04/14 07:20:10;;;;;;;5.47;1.50;;;21.70;78.50;;;;;;5507695;26;19993;-61
2024/04/14 07:22:35;;;;;;;5.82;1.77;;;21.70;78.40;;;;;;5504247;26;19998;-61
2024/04/14 07:25:04;;;;;;;5.25;1.73;;;21.70;78.70;;;;;;5499960;26;20559;-61
2024/04/14 07:27:29;;;;;;;6.40;1.50;;;21.70;79.20;;;;;;5491573;26;20006;-61
2024/04/14 07:29:55;;;;;;;7.68;1.58;;;21.70;78.90;;;;;;5502186;26;19994;-61
2024/04/14 07:32:21;;;;;;;5.20;1.58;;;21.70;78.90;;;;;;5506250;26;20017;-61
2024/04/14 07:34:47;;;;;;;4.93;1.40;;;21.70;78.80;;;;;;5495088;26;20078;-61
2024/04/14 07:37:13;;;;;;;4.47;1.40;;;21.70;78.80;;;;;;5513212;26;20029;-61
2024/04/14 07:39:38;;;;;;;5.25;1.70;;;21.70;78.80;;;;;;5501304;26;20204;-61
2024/04/14 07:42:08;;;;;;;4.95;1.65;;;21.70;78.90;;;;;;5492141;26;20066;-61
2024/04/14 07:44:34;;;;;;;5.35;1.50;;;21.80;79.00;;;;;;5498705;26;19998;-61
2024/04/14 07:46:59;;;;;;;7.38;2.00;;;21.80;79.00;;;;;;5503913;26;19998;-61
2024/04/14 07:49:25;;;;;;;6.53;1.70;;;21.80;79.40;;;;;;5501151;26;20341;-61
2024/04/14 07:51:53;;;;;;;5.00;1.63;;;21.80;79.30;;;;;;5499869;26;20073;-61
2024/04/14 07:54:19;;;;;;;6.72;1.60;;;21.80;79.40;;;;;;5516855;26;20017;-60
2024/04/14 07:56:44;;;;;;;5.03;1.70;;;21.80;79.50;;;;;;5504630;26;20925;-60
2024/04/14 07:59:10;;;;;;;7.88;1.90;;;21.80;79.50;;;;;;5496885;26;20009;-60
2024/04/14 08:01:36;;;;;;;9.90;2.90;;;21.80;80.70;;;;;;5484288;26;20002;-60
2024/04/14 08:04:01;;;;;;;11.60;4.30;;;21.80;81.90;;;;;;5492247;26;20559;-60
2024/04/14 08:06:27;;;;;;;6.97;1.77;;;21.80;84.90;;;;;;5497114;26;20043;-60
2024/04/14 08:08:53;;;;;;;11.65;2.00;;;21.90;83.30;;;;;;5505743;26;20502;-60
2024/04/14 08:11:19;;;;;;;7.97;2.00;;;21.90;82.60;;;;;;5493873;26;19998;-60
2024/04/14 08:13:45;;;;;;;8.10;1.92;;;21.90;82.10;;;;;;5491358;26;20005;-60
2024/04/14 08:16:11;;;;;;;8.40;2.08;;;21.90;81.80;;;;;;5499168;26;20006;-60
2024/04/14 08:18:36;;;;;;;9.20;1.70;;;21.90;81.90;;;;;;5502619;26;19993;-61
2024/04/14 08:21:02;;;;;;;7.63;2.03;;;21.90;81.70;;;;;;5498380;26;20029;-60
2024/04/14 08:23:28;;;;;;;10.23;1.90;;;21.90;81.50;;;;;;5502566;26;20005;-60
2024/04/14 08:25:54;;;;;;;6.55;2.10;;;21.90;81.40;;;;;;5502655;26;20840;-60
2024/04/14 08:28:20;;;;;;;6.60;2.00;;;21.90;81.20;;;;;;5498532;26;20006;-60
2024/04/14 08:30:45;;;;;;;7.25;2.22;;;21.90;80.90;;;;;;5496387;26;20002;-59
2024/04/14 08:33:11;;;;;;;7.88;2.00;;;21.90;80.70;;;;;;5494716;26;20402;-60
2024/04/14 08:35:37;;;;;;;5.63;1.67;;;21.90;80.40;;;;;;5495930;26;20321;-60
2024/04/14 08:38:03;;;;;;;5.68;2.08;;;21.90;80.30;;;;;;5494794;26;20008;-60
2024/04/14 08:40:29;;;;;;;7.05;1.88;;;21.90;80.10;;;;;;5493159;26;20002;-60
2024/04/14 08:42:55;;;;;;;5.50;1.70;;;21.90;79.90;;;;;;5504292;26;20442;-59
2024/04/14 08:45:24;;;;;;;6.40;1.80;;;21.90;79.80;;;;;;5498539;26;20002;-60
2024/04/14 08:47:55;;;;;;;7.65;1.92;;;21.90;79.60;;;;;;5489784;26;19998;-60
2024/04/14 08:50:23;;;;;;;5.68;1.88;;;21.90;79.40;;;;;;5500073;26;20356;-60
2024/04/14 08:52:48;;;;;;;8.18;2.22;;;21.80;79.20;;;;;;5494027;26;20536;-60
2024/04/14 08:55:15;;;;;;;9.07;2.20;;;21.90;78.80;;;;;;5492395;26;19997;-59
2024/04/14 08:57:41;;;;;;;8.18;1.90;;;21.90;78.20;;;;;;5500647;26;20013;-59
2024/04/14 09:00:12;;;;;;;8.15;2.15;;;21.90;78.00;;;;;;5494374;26;20001;-60
2024/04/14 09:02:40;;;;;;;6.78;2.00;;;21.90;78.00;;;;;;5498433;26;19997;-60
2024/04/14 09:05:12;;;;;;;6.30;1.73;;;21.80;78.40;;;;;;5496206;26;20080;-61
2024/04/14 09:07:41;;;;;;;8.13;2.05;;;21.80;78.10;;;;;;5492636;26;20394;-60
2024/04/14 09:10:06;;;;;;;5.80;1.80;;;21.80;77.80;;;;;;5491407;26;20750;-60
2024/04/14 09:12:32;;;;;;;7.30;1.73;;;21.80;77.60;;;;;;5500064;26;20077;-60
2024/04/14 09:15:00;;;;;;;5.47;1.60;;;21.80;77.40;;;;;;5492701;26;20005;-60
2024/04/14 09:17:26;;;;;;;6.60;1.80;;;21.80;77.40;;;;;;5498611;26;20052;-60
2024/04/14 09:19:51;;;;;;;6.28;1.83;;;21.80;77.30;;;;;;5495383;26;19998;-60
2024/04/14 09:22:20;;;;;;;6.80;1.70;;;21.80;77.20;;;;;;5493154;26;20020;-60
2024/04/14 09:24:49;;;;;;;6.53;2.03;;;21.80;77.10;;;;;;5496313;26;20070;-60
2024/04/14 09:27:15;;;;;;;6.03;2.10;;;21.80;77.10;;;;;;5491254;26;20609;-60
2024/04/14 09:29:41;;;;;;;9.07;1.73;;;21.80;76.90;;;;;;5488331;26;20002;-60
2024/04/14 09:32:08;;;;;;;5.68;1.67;;;21.80;76.90;;;;;;5489065;26;20052;-60
2024/04/14 09:34:38;;;;;;;6.40;1.92;;;21.80;76.90;;;;;;5495152;26;20325;-60
2024/04/14 09:37:07;;;;;;;5.18;1.42;;;21.80;76.80;;;;;;5495874;26;20005;-60
2024/04/14 09:39:34;;;;;;;6.07;1.77;;;21.80;76.80;;;;;;5494887;26;19997;-60
2024/04/14 09:42:03;;;;;;;8.40;2.00;;;21.70;76.70;;;;;;5510757;26;20037;-60
2024/04/14 09:44:31;;;;;;;5.18;1.50;;;21.70;76.70;;;;;;5498353;26;20035;-60
2024/04/14 09:46:59;;;;;;;5.38;1.63;;;21.80;76.70;;;;;;5491756;26;20014;-60
2024/04/14 09:49:28;;;;;;;6.13;1.77;;;21.70;76.60;;;;;;5494150;26;19998;-60
2024/04/14 09:51:55;;;;;;;7.53;2.00;;;21.80;76.60;;;;;;5485891;26;20000;-60
2024/04/14 09:54:22;;;;;;;5.80;1.80;;;21.80;76.50;;;;;;5495103;26;19994;-60
2024/04/14 09:56:48;;;;;;;6.45;1.77;;;21.70;76.50;;;;;;5501762;26;20000;-60
2024/04/14 09:59:14;;;;;;;7.47;1.98;;;21.80;76.50;;;;;;5487440;26;19990;-60
2024/04/14 10:01:45;;;;;;;6.00;1.85;;;21.80;76.50;;;;;;5492563;26;19990;-60
2024/04/14 10:04:12;;;;;;;5.75;1.83;;;21.80;76.50;;;;;;5487470;26;19994;-60
2024/04/14 10:06:39;;;;;;;5.32;1.73;;;21.80;76.50;;;;;;5492122;26;20078;-60
2024/04/14 10:09:10;;;;;;;6.63;1.80;;;21.70;76.40;;;;;;5487087;26;20339;-60
2024/04/14 10:11:36;;;;;;;6.18;2.00;;;21.70;77.00;;;;;;5491774;26;19994;-59
2024/04/14 10:14:05;;;;;;;6.78;1.55;;;21.80;76.50;;;;;;5502715;26;20004;-60
2024/04/14 10:16:31;;;;;;;5.90;1.80;;;21.70;76.50;;;;;;5491378;26;20341;-60
2024/04/14 10:19:04;;;;;;;4.78;1.58;;;21.70;76.50;;;;;;5500450;26;20010;-60
2024/04/14 10:21:29;;;;;;;5.82;1.73;;;21.80;76.60;;;;;;5493629;26;20067;-60
2024/04/14 10:23:56;;;;;;;8.07;2.05;;;21.80;76.60;;;;;;5495353;26;20027;-60
2024/04/14 10:26:22;;;;;;;6.05;1.80;;;21.80;76.60;;;;;;5492507;26;19998;-60
2024/04/14 10:28:55;;;;;;;4.95;1.60;;;21.80;76.60;;;;;;5496509;26;20787;-60
2024/04/14 10:31:34;;;;;;;5.15;1.83;;;21.70;76.60;;;;;;5491375;26;19998;-60
2024/04/14 10:34:09;;;;;;;6.95;1.83;;;21.80;76.60;;;;;;5497383;26;20473;-60
2024/04/14 10:36:39;;;;;;;5.22;1.75;;;21.80;76.60;;;;;;5504942;26;19997;-60
2024/04/14 10:39:06;;;;;;;4.85;1.55;;;21.80;76.60;;;;;;5496057;26;20335;-61
2024/04/14 10:41:35;;;;;;;7.82;1.80;;;21.80;76.70;;;;;;5499509;26;20033;-61
2024/04/14 10:44:00;;;;;;;4.63;1.55;;;21.80;76.70;;;;;;5492629;26;20095;-61
2024/04/14 10:46:26;;;;;;;6.93;1.77;;;21.80;76.60;;;;;;5489199;26;20006;-61
2024/04/14 10:48:51;;;;;;;5.18;1.65;;;21.80;76.60;;;;;;5489463;26;20005;-61
2024/04/14 10:51:20;;;;;;;4.95;1.60;;;21.80;76.60;;;;;;5486634;26;20035;-61
2024/04/14 10:53:48;;;;;;;6.25;1.67;;;21.80;76.60;;;;;;5492232;26;20017;-61
2024/04/14 10:56:14;;;;;;;6.82;2.00;;;21.80;76.50;;;;;;5489997;26;20016;-61
2024/04/14 10:58:39;;;;;;;5.40;1.63;;;21.80;76.50;;;;;;5488710;26;19998;-60
2024/04/14 11:01:05;;;;;;;6.45;1.80;;;21.80;76.50;;;;;;5491098;26;20009;-60
2024/04/14 11:03:32;;;;;;;5.85;2.22;;;21.90;76.50;;;;;;5487026;26;20051;-61
2024/04/14 11:05:58;;;;;;;6.78;2.20;;;21.80;76.30;;;;;;5494301;26;20352;-61
2024/04/14 11:08:25;;;;;;;5.25;1.90;;;21.90;76.30;;;;;;5492059;26;19997;-61
2024/04/14 11:10:53;;;;;;;5.05;1.77;;;21.90;76.30;;;;;;5493498;26;20006;-60
2024/04/14 11:13:22;;;;;;;6.25;1.83;;;21.90;76.80;;;;;;5507344;26;20012;-62
2024/04/14 11:15:47;;;;;;;5.28;2.08;;;21.90;76.20;;;;;;5499102;26;20076;-60
2024/04/14 11:18:16;;;;;;;9.10;2.20;;;21.90;76.00;;;;;;5486371;26;20035;-61
2024/04/14 11:20:49;;;;;;;6.68;2.10;;;21.90;76.00;;;;;;5497904;26;20009;-60
2024/04/14 11:23:14;;;;;;;5.65;2.20;;;21.90;75.90;;;;;;5498284;26;20001;-61
2024/04/14 11:25:40;;;;;;;7.20;2.03;;;21.90;75.80;;;;;;5495722;26;19998;-61
2024/04/14 11:28:06;;;;;;;6.25;2.20;;;21.90;75.70;;;;;;5497828;26;20004;-60
2024/04/14 11:30:32;;;;;;;6.80;2.10;;;21.90;75.70;;;;;;5487745;26;19994;-60
2024/04/14 11:32:58;;;;;;;6.03;2.20;;;21.90;75.60;;;;;;5488613;26;20008;-60
2024/04/14 11:35:25;;;;;;;7.47;2.30;;;21.90;75.60;;;;;;5497108;26;19998;-60
2024/04/14 11:37:54;;;;;;;5.60;2.00;;;21.90;75.50;;;;;;5492927;26;20067;-60
2024/04/14 11:40:21;;;;;;;5.35;2.13;;;21.90;75.50;;;;;;5493621;26;19998;-60
2024/04/14 11:42:48;;;;;;;5.15;1.98;;;21.90;75.30;;;;;;5498437;26;20689;-60
2024/04/14 11:45:13;;;;;;;4.75;1.90;;;22.00;75.70;;;;;;5492803;26;20017;-59
2024/04/14 11:47:39;;;;;;;5.93;2.25;;;22.00;75.10;;;;;;5498229;26;20026;-60
2024/04/14 11:50:07;;;;;;;6.45;2.30;;;22.00;75.00;;;;;;5497177;26;20522;-60
2024/04/14 11:52:32;;;;;;;6.47;2.40;;;22.00;75.00;;;;;;5495022;26;20009;-60
2024/04/14 11:54:58;;;;;;;5.97;2.03;;;21.90;74.80;;;;;;5498790;26;20006;-60
2024/04/14 11:57:23;;;;;;;4.78;1.90;;;22.00;74.90;;;;;;5497112;26;20017;-60
2024/04/14 11:59:52;;;;;;;6.78;2.10;;;22.00;74.80;;;;;;5510620;26;20472;-60
2024/04/14 12:02:18;;;;;;;6.45;2.10;;;22.00;74.80;;;;;;5495488;26;20062;-60
2024/04/14 12:04:44;;;;;;;6.00;2.08;;;22.00;74.70;;;;;;5494345;26;20005;-60
2024/04/14 12:07:10;;;;;;;6.45;2.28;;;22.00;74.80;;;;;;5499924;26;20362;-61
2024/04/14 12:09:35;;;;;;;5.88;2.30;;;22.00;74.60;;;;;;5486458;26;20002;-60
2024/04/14 12:12:01;;;;;;;4.65;1.77;;;22.00;74.70;;;;;;5490513;26;19993;-60
2024/04/14 12:14:27;;;;;;;5.38;2.10;;;22.00;74.60;;;;;;5496445;26;19998;-60
2024/04/14 12:16:54;;;;;;;5.95;1.90;;;22.00;74.60;;;;;;5484485;26;20517;-60
2024/04/14 12:19:20;;;;;;;6.03;1.95;;;22.00;74.60;;;;;;5481626;26;20002;-60
2024/04/14 12:21:46;;;;;;;6.72;2.22;;;22.00;74.30;;;;;;5493504;26;20543;-60
2024/04/14 12:24:11;;;;;;;5.97;2.45;;;22.00;74.40;;;;;;5500708;26;20013;-60
2024/04/14 12:26:37;;;;;;;5.78;1.90;;;22.00;74.40;;;;;;5502068;26;20046;-60
2024/04/14 12:29:03;;;;;;;6.80;1.90;;;22.00;74.10;;;;;;5491778;26;19998;-60
2024/04/14 12:31:31;;;;;;;6.60;2.10;;;22.00;74.10;;;;;;5486037;26;19998;-60
2024/04/14 12:33:56;;;;;;;7.82;2.03;;;22.00;74.00;;;;;;5494491;26;20492;-61
2024/04/14 12:36:24;;;;;;;5.25;2.03;;;22.00;74.00;;;;;;5493986;26;19997;-61
2024/04/14 12:38:49;;;;;;;5.93;1.92;;;22.00;73.70;;;;;;5482578;26;20002;-60
2024/04/14 12:41:16;;;;;;;6.80;2.10;;;22.00;73.80;;;;;;5480765;26;20034;-61